Time;durP1;ratioP1;P1;durP2;ratioP2;P2;SDS_P1;SDS_P2;PMS_P1;PMS_P2;Temp;Humidity;BMP_temperature;BMP_pressure;BME280_temperature;BME280_humidity;BME280_pressure;Samples;Min_cycle;Max_cycle;Signal;HPM_P1;HPM_P2
2022/07/26 03:01:02;;;;;;;;;;;18.00;99.90;;;;;;6244775;22;20023;-86
2022/07/26 03:04:10;;;;;;;;;;;;;;;;;;;;;
2022/07/26 03:07:27;;;;;;;8.65;3.10;;;17.70;99.90;;;;;;6184165;23;20015;-86
2022/07/26 03:10:11;;;;;;;6.05;3.40;;;17.60;99.90;;;;;;6134272;23;20139;-84
2022/07/26 03:16:48;;;;;;;10.85;4.97;;;17.40;99.90;;;;;;6103897;23;20100;-86
2022/07/26 03:19:19;;;;;;;9.88;3.90;;;17.40;99.90;;;;;;6066725;23;20435;-84
2022/07/26 03:21:47;;;;;;;8.90;3.40;;;17.40;99.90;;;;;;6129704;23;20045;-85
2022/07/26 03:24:38;;;;;;;;;;;;;;;;;;;;;
2022/07/26 03:30:51;;;;;;;10.27;4.20;;;17.20;99.90;;;;;;6276710;22;20026;-84
2022/07/26 03:37:10;;;;;;;12.65;3.70;;;17.20;99.90;;;;;;6155179;23;20064;-85
2022/07/26 03:40:42;;;;;;;;;;;;;;;;;;;;;
2022/07/26 03:48:08;;;;;;;;;;;;;;;;;;;;;
2022/07/26 03:51:47;;;;;;;;;;;;;;;;;;;;;
2022/07/26 03:57:56;;;;;;;7.32;3.03;;;17.20;99.90;;;;;;6297742;22;20053;-85
2022/07/26 04:00:21;;;;;;;9.80;3.20;;;17.10;99.90;;;;;;6308216;22;20381;-86
2022/07/26 04:02:47;;;;;;;14.88;4.18;;;17.10;99.90;;;;;;6281127;22;20007;-86
2022/07/26 04:05:23;;;;;;;8.82;3.53;;;17.10;99.90;;;;;;6308394;22;20004;-84
2022/07/26 04:09:01;;;;;;;;;;;;;;;;;;;;;
2022/07/26 04:12:45;;;;;;;11.00;4.03;;;17.10;99.90;;;;;;6124966;23;20018;-87
2022/07/26 04:15:20;;;;;;;7.05;3.50;;;17.10;99.90;;;;;;6158771;23;20047;-86
2022/07/26 04:18:41;;;;;;;12.70;4.05;;;17.10;99.90;;;;;;6150542;23;20114;-88
2022/07/26 04:21:10;;;;;;;10.32;3.58;;;17.10;99.90;;;;;;6148187;23;20020;-85
2022/07/26 04:23:46;;;;;;;10.68;3.33;;;17.10;99.90;;;;;;6154135;23;20496;-86
2022/07/26 04:26:15;;;;;;;10.63;2.80;;;17.10;99.90;;;;;;6127786;23;20155;-86
2022/07/26 04:28:41;;;;;;;12.48;2.72;;;17.10;99.90;;;;;;6126349;23;20462;-88
2022/07/26 04:31:20;;;;;;;;;;;;;;;;;;;;;
2022/07/26 04:34:05;;;;;;;15.07;2.63;;;17.10;99.90;;;;;;6128938;23;20090;-86
2022/07/26 04:37:03;;;;;;;7.20;2.37;;;17.00;99.90;;;;;;6128763;23;20013;-86
2022/07/26 04:39:31;;;;;;;12.18;2.58;;;17.00;99.90;;;;;;6129764;23;20022;-87
2022/07/26 04:42:05;;;;;;;9.57;2.60;;;17.00;99.90;;;;;;6138259;23;20057;-88
2022/07/26 04:44:36;;;;;;;10.52;2.28;;;16.90;99.90;;;;;;6173071;23;20008;-85
2022/07/26 04:47:02;;;;;;;11.70;3.40;;;16.90;99.90;;;;;;6193675;23;20016;-87
2022/07/26 04:49:28;;;;;;;8.98;2.88;;;16.90;99.90;;;;;;6268265;22;20022;-88
2022/07/26 04:51:53;;;;;;;10.00;2.20;;;17.00;99.90;;;;;;6308860;22;20011;-86
2022/07/26 04:54:19;;;;;;;9.45;1.95;;;17.00;99.90;;;;;;6281494;22;20451;-88
2022/07/26 04:56:46;;;;;;;11.32;2.08;;;16.90;99.90;;;;;;6282152;22;20014;-87
2022/07/26 04:59:12;;;;;;;12.73;2.40;;;16.90;99.90;;;;;;6282184;22;20019;-85
2022/07/26 05:02:34;;;;;;;;;;;;;;;;;;;;;
2022/07/26 05:05:05;;;;;;;10.00;2.05;;;16.90;99.90;;;;;;6280823;22;20421;-86
2022/07/26 05:07:45;;;;;;;10.13;1.33;;;16.90;99.90;;;;;;6281971;22;20020;-89
2022/07/26 05:10:39;;;;;;;9.07;1.63;;;16.80;99.90;;;;;;6256862;22;20011;-86
2022/07/26 05:13:07;;;;;;;4.97;1.23;;;16.80;99.90;;;;;;6256468;22;20014;-89
2022/07/26 05:15:35;;;;;;;6.28;1.20;;;16.70;99.90;;;;;;6280566;22;20011;-82
2022/07/26 05:18:03;;;;;;;10.85;1.10;;;16.70;99.90;;;;;;6310946;22;20078;-89
2022/07/26 05:20:29;;;;;;;6.85;1.05;;;16.60;99.90;;;;;;6282338;22;20018;-86
2022/07/26 05:22:55;;;;;;;10.73;1.50;;;16.50;99.90;;;;;;6283329;22;20011;-90
2022/07/26 05:25:20;;;;;;;5.82;1.33;;;16.50;99.90;;;;;;6285527;22;19988;-91
2022/07/26 05:27:46;;;;;;;7.28;1.77;;;16.50;99.90;;;;;;6259901;22;20054;-90
2022/07/26 05:30:12;;;;;;;8.18;1.15;;;16.50;99.90;;;;;;6259788;22;20011;-88
2022/07/26 05:32:37;;;;;;;10.40;1.60;;;16.40;99.90;;;;;;6282920;22;20038;-84
2022/07/26 05:35:04;;;;;;;5.63;1.08;;;16.50;99.90;;;;;;6257291;22;20023;-87
2022/07/26 05:37:30;;;;;;;8.85;1.73;;;16.50;99.90;;;;;;6283497;22;20160;-89
2022/07/26 05:39:56;;;;;;;7.65;1.30;;;16.40;99.90;;;;;;6257727;22;20023;-90
2022/07/26 05:42:22;;;;;;;7.28;1.20;;;16.40;99.90;;;;;;6284406;22;20022;-90
2022/07/26 05:44:48;;;;;;;5.57;1.00;;;16.30;99.90;;;;;;6260072;22;20053;-90
2022/07/26 05:47:14;;;;;;;8.25;1.50;;;16.30;99.90;;;;;;6259933;22;20019;-91
2022/07/26 05:49:39;;;;;;;4.60;1.45;;;16.30;99.90;;;;;;6259060;22;20326;-90
2022/07/26 05:52:05;;;;;;;10.07;1.20;;;16.20;99.90;;;;;;6288689;22;20077;-91
2022/07/26 05:54:34;;;;;;;5.43;1.13;;;16.20;99.90;;;;;;6263594;22;20015;-92
2022/07/26 05:57:00;;;;;;;6.72;1.27;;;16.30;99.90;;;;;;6259176;22;20106;-88
2022/07/26 05:59:26;;;;;;;6.78;1.30;;;16.20;99.90;;;;;;6284647;22;20011;-90
2022/07/26 06:01:55;;;;;;;8.40;1.20;;;16.20;99.90;;;;;;6285347;22;20015;-90
2022/07/26 06:04:22;;;;;;;9.15;2.05;;;16.20;99.90;;;;;;6259929;22;20007;-90
2022/07/26 06:06:48;;;;;;;6.40;1.30;;;16.30;99.90;;;;;;6285128;22;20007;-90
2022/07/26 06:09:13;;;;;;;6.28;1.70;;;16.30;99.90;;;;;;6260997;22;20148;-89
2022/07/26 06:11:39;;;;;;;7.30;1.23;;;16.40;99.90;;;;;;6286876;22;19991;-89
2022/07/26 06:14:05;;;;;;;6.10;1.40;;;16.40;99.90;;;;;;6286556;22;19999;-90
2022/07/26 06:16:30;;;;;;;6.07;0.90;;;16.40;99.90;;;;;;6287368;22;20065;-86
2022/07/26 06:18:56;;;;;;;7.80;1.08;;;16.40;99.90;;;;;;6259384;22;20026;-89
2022/07/26 06:21:22;;;;;;;6.32;1.05;;;16.40;99.90;;;;;;6260373;22;20015;-90
2022/07/26 06:23:48;;;;;;;6.22;1.13;;;16.50;99.90;;;;;;6262085;22;20349;-92
2022/07/26 06:26:27;;;;;;;8.77;1.55;;;16.50;99.90;;;;;;6286532;22;20461;-93
2022/07/26 06:28:52;;;;;;;5.80;0.90;;;16.50;99.90;;;;;;6266068;22;20015;-90
2022/07/26 06:31:18;;;;;;;2.85;0.73;;;16.30;99.90;;;;;;6284744;22;20011;-91
2022/07/26 06:33:57;;;;;;;;;;;;;;;;;;;;;
2022/07/26 06:36:23;;;;;;;7.88;1.08;;;16.10;99.90;;;;;;6289019;22;20015;-90
2022/07/26 06:38:48;;;;;;;4.60;1.02;;;16.10;99.90;;;;;;6286237;22;20080;-90
2022/07/26 06:41:14;;;;;;;5.18;0.88;;;16.10;99.90;;;;;;6261902;22;20011;-90
2022/07/26 06:43:40;;;;;;;6.80;1.00;;;16.10;99.90;;;;;;6292826;22;20011;-90
2022/07/26 06:46:06;;;;;;;4.00;0.75;;;16.10;99.90;;;;;;6272638;22;20459;-89
2022/07/26 06:48:32;;;;;;;6.88;1.10;;;16.20;99.90;;;;;;6327012;22;20064;-90
2022/07/26 06:50:58;;;;;;;6.85;0.88;;;16.20;99.90;;;;;;6278004;22;20018;-89
2022/07/26 06:53:23;;;;;;;6.20;0.95;;;16.20;99.90;;;;;;6309946;22;20029;-88
2022/07/26 06:55:53;;;;;;;7.38;1.30;;;16.30;99.90;;;;;;6277139;22;20037;-87
2022/07/26 06:58:18;;;;;;;7.57;1.45;;;16.40;99.90;;;;;;6314611;22;20003;-88
2022/07/26 07:01:18;;;;;;;7.72;1.20;;;16.50;99.90;;;;;;6284341;22;20471;-87
2022/07/26 07:03:37;;;;;;;8.02;0.93;;;16.50;99.90;;;;;;6279451;22;20404;-90
2022/07/26 07:06:02;;;;;;;5.22;0.70;;;16.60;99.90;;;;;;6310646;22;20018;-87
2022/07/26 07:08:28;;;;;;;5.15;0.98;;;16.60;99.90;;;;;;6285171;22;20049;-88
2022/07/26 07:10:55;;;;;;;5.72;0.70;;;16.70;99.90;;;;;;6283918;22;20012;-89
2022/07/26 07:13:21;;;;;;;5.90;0.75;;;16.80;99.90;;;;;;6282702;22;20034;-85
2022/07/26 07:15:47;;;;;;;3.28;0.60;;;16.80;99.90;;;;;;6284753;22;20022;-88
2022/07/26 07:18:12;;;;;;;3.70;0.70;;;16.80;99.90;;;;;;6283325;22;20049;-87
2022/07/26 07:20:39;;;;;;;5.47;1.35;;;16.80;99.90;;;;;;6258438;22;20015;-87
2022/07/26 07:23:05;;;;;;;6.38;0.80;;;16.70;99.90;;;;;;6282784;22;20456;-89
2022/07/26 07:25:31;;;;;;;7.50;1.23;;;16.70;99.90;;;;;;6283311;22;20011;-88
2022/07/26 07:27:57;;;;;;;4.60;0.88;;;16.80;99.90;;;;;;6258406;22;20554;-88
2022/07/26 07:30:23;;;;;;;10.07;1.25;;;16.90;99.90;;;;;;6257173;22;20023;-90
2022/07/26 07:32:48;;;;;;;8.18;1.20;;;16.90;99.90;;;;;;6311282;22;20011;-87
2022/07/26 07:35:14;;;;;;;5.03;1.17;;;16.90;99.90;;;;;;6282374;22;20021;-89
2022/07/26 07:37:40;;;;;;;3.63;0.80;;;17.00;99.90;;;;;;6309576;22;20007;-87
2022/07/26 07:40:07;;;;;;;5.57;0.70;;;17.10;99.90;;;;;;6282694;22;20011;-87
2022/07/26 07:42:33;;;;;;;9.80;1.05;;;17.10;99.90;;;;;;6281243;22;20449;-86
2022/07/26 07:44:58;;;;;;;4.88;0.88;;;17.20;99.90;;;;;;6308717;22;20011;-85
2022/07/26 07:47:24;;;;;;;6.25;1.15;;;17.20;99.90;;;;;;6281203;22;20009;-83
2022/07/26 07:49:49;;;;;;;4.97;0.70;;;17.20;99.90;;;;;;6281253;22;20011;-86
2022/07/26 07:52:15;;;;;;;5.18;0.68;;;17.10;99.90;;;;;;6308407;22;20017;-86
2022/07/26 07:54:41;;;;;;;6.35;1.60;;;17.20;99.90;;;;;;6281030;22;20019;-84
2022/07/26 07:57:07;;;;;;;4.32;0.80;;;17.30;99.90;;;;;;6281243;22;20075;-85
2022/07/26 07:59:32;;;;;;;4.50;0.68;;;17.30;99.90;;;;;;6308152;22;20022;-85
2022/07/26 08:01:58;;;;;;;4.13;1.35;;;17.30;99.90;;;;;;6309052;22;20050;-85
2022/07/26 08:04:24;;;;;;;6.03;1.05;;;17.30;99.90;;;;;;6281049;22;20011;-86
2022/07/26 08:06:50;;;;;;;3.65;0.85;;;17.40;99.90;;;;;;6255524;22;20015;-85
2022/07/26 08:09:15;;;;;;;5.53;0.85;;;17.40;99.90;;;;;;6309296;22;20030;-85
2022/07/26 08:11:41;;;;;;;5.20;1.00;;;17.40;99.90;;;;;;6281520;22;20007;-86
2022/07/26 08:14:07;;;;;;;7.88;1.10;;;17.30;99.90;;;;;;6281435;22;20022;-87
2022/07/26 08:16:57;;;;;;;6.38;1.10;;;17.30;99.90;;;;;;6280089;22;20019;-89
2022/07/26 08:19:24;;;;;;;6.25;1.42;;;17.20;99.90;;;;;;6255541;22;20011;-89
2022/07/26 08:21:50;;;;;;;7.85;1.20;;;17.20;99.90;;;;;;6283148;22;20011;-88
2022/07/26 08:24:26;;;;;;;5.47;0.82;;;17.20;99.90;;;;;;6256490;22;20084;-88
2022/07/26 08:26:52;;;;;;;7.32;0.80;;;17.30;99.90;;;;;;6255501;22;20445;-89
2022/07/26 08:29:21;;;;;;;5.75;0.90;;;17.30;99.90;;;;;;6281959;22;20015;-87
2022/07/26 08:31:49;;;;;;;4.07;0.80;;;17.30;99.90;;;;;;6257074;22;20022;-87
2022/07/26 08:34:16;;;;;;;10.57;1.52;;;17.30;99.90;;;;;;6256095;22;20018;-88
2022/07/26 08:36:42;;;;;;;5.25;0.90;;;17.40;99.90;;;;;;6282256;22;20340;-87
2022/07/26 08:39:08;;;;;;;7.35;1.15;;;17.50;99.90;;;;;;6282712;22;20047;-89
2022/07/26 08:41:34;;;;;;;6.90;1.20;;;17.50;99.90;;;;;;6281866;22;20371;-86
2022/07/26 08:44:07;;;;;;;6.13;0.93;;;17.60;99.90;;;;;;6308725;22;20363;-87
2022/07/26 08:46:36;;;;;;;5.40;1.15;;;17.70;99.90;;;;;;6257715;22;20018;-88
2022/07/26 08:49:03;;;;;;;9.30;1.40;;;17.80;99.90;;;;;;6309149;22;20011;-89
2022/07/26 08:51:30;;;;;;;5.40;1.05;;;17.90;99.90;;;;;;6255629;22;20012;-86
2022/07/26 08:53:58;;;;;;;8.77;1.25;;;17.90;99.90;;;;;;6310651;22;20344;-87
2022/07/26 08:56:24;;;;;;;6.53;0.90;;;17.90;99.90;;;;;;6281558;22;20078;-88
2022/07/26 08:58:49;;;;;;;6.07;1.30;;;18.00;99.90;;;;;;6256803;22;20018;-86
2022/07/26 09:01:15;;;;;;;7.72;1.33;;;18.10;99.90;;;;;;6255832;22;20026;-87
2022/07/26 09:03:43;;;;;;;6.22;1.52;;;18.20;99.90;;;;;;6281028;22;20440;-88
2022/07/26 09:06:18;;;;;;;4.68;1.05;;;18.20;99.90;;;;;;6280870;22;20018;-87
2022/07/26 09:08:45;;;;;;;;;;;18.20;99.90;;;;;;6257804;22;20062;-89
2022/07/26 09:11:31;;;;;;;6.97;1.48;;;18.40;99.90;;;;;;6256039;22;19917;-89
2022/07/26 09:14:03;;;;;;;4.38;1.23;;;18.40;99.90;;;;;;6311083;22;20010;-86
2022/07/26 09:16:30;;;;;;;4.03;0.90;;;18.50;99.90;;;;;;6281254;22;20015;-89
2022/07/26 09:19:25;;;;;;;5.15;1.05;;;18.50;99.90;;;;;;6281794;22;20012;-86
2022/07/26 09:22:22;;;;;;;8.32;1.77;;;18.60;99.90;;;;;;6310358;22;20012;-89
2022/07/26 09:24:48;;;;;;;8.57;0.98;;;18.70;99.90;;;;;;6174841;22;20096;-88
2022/07/26 09:27:16;;;;;;;6.00;1.38;;;18.70;99.90;;;;;;6282324;22;20049;-87
2022/07/26 09:29:56;;;;;;;6.40;1.10;;;18.70;99.90;;;;;;6284198;22;20341;-87
2022/07/26 09:32:26;;;;;;;7.82;1.55;;;18.60;99.90;;;;;;6283437;22;20314;-88
2022/07/26 09:34:55;;;;;;;3.88;1.17;;;18.50;99.90;;;;;;6258825;22;20349;-83
2022/07/26 09:37:42;;;;;;;8.00;1.20;;;18.40;99.90;;;;;;6283209;22;20011;-85
2022/07/26 09:40:13;;;;;;;6.95;1.60;;;18.50;99.90;;;;;;6257310;22;20045;-89
2022/07/26 09:43:02;;;;;;;10.75;1.90;;;18.70;99.90;;;;;;6285046;22;20436;-88
2022/07/26 09:46:03;;;;;;;9.57;1.98;;;18.70;99.90;;;;;;6311378;22;20438;-91
2022/07/26 09:52:17;;;;;;;11.27;2.00;;;18.50;99.90;;;;;;6310890;22;20018;-91
2022/07/26 09:54:49;;;;;;;6.18;1.38;;;18.60;99.90;;;;;;6284726;22;20030;-91
2022/07/26 09:57:19;;;;;;;5.65;1.23;;;18.70;99.90;;;;;;6260627;22;20459;-84
2022/07/26 09:59:46;;;;;;;7.18;1.02;;;18.80;99.90;;;;;;6309684;22;20003;-86
2022/07/26 10:02:13;;;;;;;8.23;1.02;;;18.70;99.90;;;;;;6282959;22;20467;-85
2022/07/26 10:04:42;;;;;;;6.00;1.33;;;18.70;99.90;;;;;;6256734;22;20094;-86
2022/07/26 10:07:09;;;;;;;8.90;1.58;;;18.60;99.90;;;;;;6282845;22;20011;-88
2022/07/26 10:09:51;;;;;;;9.80;2.00;;;18.60;99.90;;;;;;6283519;22;20014;-86
2022/07/26 10:12:20;;;;;;;9.10;1.45;;;18.60;99.90;;;;;;6256945;22;20011;-86
2022/07/26 10:14:50;;;;;;;9.63;1.80;;;18.60;99.90;;;;;;6257318;22;20022;-85
2022/07/26 10:17:40;;;;;;;10.80;1.80;;;18.70;99.90;;;;;;6259019;22;20060;-87
2022/07/26 10:20:30;;;;;;;7.97;1.50;;;19.00;99.90;;;;;;6310556;22;20049;-86
2022/07/26 10:22:56;;;;;;;9.27;1.83;;;19.10;99.90;;;;;;6282761;22;20047;-85
2022/07/26 10:25:21;;;;;;;12.10;1.95;;;19.10;99.90;;;;;;6282397;22;20322;-86
2022/07/26 10:27:54;;;;;;;14.93;2.47;;;19.10;99.90;;;;;;6256717;22;20433;-86
2022/07/26 10:30:21;;;;;;;10.23;1.77;;;18.90;99.90;;;;;;6282381;22;20060;-86
2022/07/26 10:32:53;;;;;;;13.45;2.10;;;19.20;99.90;;;;;;6282212;22;20387;-86
2022/07/26 10:35:39;;;;;;;10.40;1.70;;;19.20;99.90;;;;;;6283094;22;20011;-86
2022/07/26 10:38:09;;;;;;;10.23;1.58;;;19.20;99.90;;;;;;6256814;22;20019;-84
2022/07/26 10:40:37;;;;;;;11.55;1.70;;;18.90;99.90;;;;;;6256897;22;20015;-87
2022/07/26 10:43:09;;;;;;;10.90;1.58;;;18.80;99.90;;;;;;6257063;22;20025;-86
2022/07/26 10:45:36;;;;;;;8.15;1.70;;;18.70;99.90;;;;;;6309510;22;20011;-86
2022/07/26 10:48:14;;;;;;;10.18;2.30;;;18.60;99.90;;;;;;6309622;22;20014;-88
2022/07/26 10:50:42;;;;;;;7.88;1.60;;;18.50;99.90;;;;;;6283138;22;20018;-88
2022/07/26 10:53:10;;;;;;;8.75;2.00;;;18.60;99.90;;;;;;6257016;22;20008;-80
2022/07/26 10:55:53;;;;;;;7.03;1.50;;;18.60;99.90;;;;;;6282333;22;20498;-86
2022/07/26 10:58:20;;;;;;;11.52;1.50;;;18.60;99.90;;;;;;6281673;22;20428;-85
2022/07/26 11:01:15;;;;;;;12.13;1.73;;;18.60;99.90;;;;;;6308879;22;20403;-85
2022/07/26 11:03:42;;;;;;;6.33;1.40;;;18.60;99.90;;;;;;6224940;22;20509;-86
2022/07/26 11:06:29;;;;;;;11.80;1.70;;;18.60;99.90;;;;;;6306898;22;20019;-87
2022/07/26 11:08:55;;;;;;;6.95;1.80;;;18.70;99.90;;;;;;6305868;22;20011;-84
2022/07/26 11:11:31;;;;;;;5.80;1.35;;;18.70;99.90;;;;;;6278648;22;20007;-85
2022/07/26 11:14:09;;;;;;;6.00;1.33;;;18.80;99.90;;;;;;6279076;22;20011;-84
2022/07/26 11:17:01;;;;;;;8.55;1.55;;;18.90;99.90;;;;;;6254640;22;20018;-84
2022/07/26 11:19:28;;;;;;;8.00;1.38;;;19.10;99.90;;;;;;6250010;22;20011;-84
2022/07/26 11:21:59;;;;;;;7.32;1.40;;;19.40;99.90;;;;;;6281640;22;20072;-86
2022/07/26 11:24:25;;;;;;;6.85;0.88;;;19.50;99.90;;;;;;6311701;22;20286;-87
2022/07/26 11:26:51;;;;;;;5.45;1.05;;;19.70;99.90;;;;;;6256748;22;20094;-86
2022/07/26 11:29:33;;;;;;;6.47;1.00;;;19.80;99.90;;;;;;6282526;22;20015;-85
2022/07/26 11:31:59;;;;;;;5.75;1.20;;;19.80;99.90;;;;;;6282361;22;20042;-86
2022/07/26 11:34:29;;;;;;;4.65;1.13;;;19.80;99.90;;;;;;6309253;22;20015;-85
2022/07/26 11:36:58;;;;;;;7.65;1.08;;;19.70;99.90;;;;;;6284514;22;20015;-85
2022/07/26 11:39:26;;;;;;;4.78;1.00;;;19.70;99.90;;;;;;6256244;22;20016;-83
2022/07/26 11:41:57;;;;;;;9.40;1.40;;;19.70;99.90;;;;;;6308749;22;20007;-85
2022/07/26 11:44:24;;;;;;;6.22;1.35;;;19.70;99.90;;;;;;6257931;22;20015;-84
2022/07/26 11:46:50;;;;;;;8.63;1.10;;;19.90;99.90;;;;;;6281256;22;20014;-88
2022/07/26 11:49:28;;;;;;;4.68;1.05;;;19.90;99.90;;;;;;6309779;22;20011;-85
2022/07/26 11:51:55;;;;;;;3.60;0.90;;;20.10;99.90;;;;;;6282556;22;20053;-87
2022/07/26 11:54:23;;;;;;;8.52;1.67;;;20.10;99.90;;;;;;6309296;22;20007;-85
2022/07/26 11:56:51;;;;;;;7.30;1.33;;;20.20;99.90;;;;;;6257548;22;20559;-85
2022/07/26 11:59:17;;;;;;;5.82;1.08;;;20.10;99.90;;;;;;6281504;22;20452;-84
2022/07/26 12:01:45;;;;;;;5.03;1.05;;;19.90;99.90;;;;;;6281366;22;20015;-87
2022/07/26 12:04:25;;;;;;;5.22;1.67;;;20.00;99.90;;;;;;6283440;22;20015;-86
2022/07/26 12:06:52;;;;;;;6.88;0.90;;;20.00;99.90;;;;;;6256417;22;20011;-86
2022/07/26 12:09:29;;;;;;;7.97;1.10;;;19.90;99.90;;;;;;6255725;22;20017;-84
2022/07/26 12:11:55;;;;;;;5.00;1.00;;;20.00;99.90;;;;;;6310326;22;20007;-84
2022/07/26 12:14:28;;;;;;;8.90;1.40;;;20.00;99.90;;;;;;6309154;22;20042;-84
2022/07/26 12:16:54;;;;;;;6.70;0.98;;;19.90;99.90;;;;;;6282922;22;20022;-85
2022/07/26 12:19:19;;;;;;;5.57;1.30;;;19.80;99.90;;;;;;6281956;22;20015;-86
2022/07/26 12:21:46;;;;;;;4.95;1.00;;;19.70;99.90;;;;;;6308947;22;20007;-84
2022/07/26 12:24:32;;;;;;;6.20;1.40;;;19.60;99.90;;;;;;6310228;22;20015;-83
2022/07/26 12:27:09;;;;;;;3.47;1.00;;;19.60;99.90;;;;;;6281422;22;20455;-84
2022/07/26 12:29:36;;;;;;;3.17;1.00;;;19.70;99.90;;;;;;6282360;22;20015;-85
2022/07/26 12:32:19;;;;;;;4.05;1.00;;;19.80;99.90;;;;;;6283352;22;20043;-86
2022/07/26 12:34:57;;;;;;;5.03;0.90;;;19.90;99.90;;;;;;6281020;22;20015;-87
2022/07/26 12:37:24;;;;;;;8.07;1.27;;;20.00;99.90;;;;;;6281904;22;20015;-85
2022/07/26 12:40:09;;;;;;;3.22;0.90;;;20.00;99.90;;;;;;6255594;22;20015;-86
2022/07/26 12:42:37;;;;;;;;;;;20.00;99.90;;;;;;6281381;22;20090;-86
2022/07/26 12:45:07;;;;;;;5.95;1.10;;;20.00;99.90;;;;;;6282450;22;20396;-85
2022/07/26 12:47:34;;;;;;;6.65;1.13;;;20.10;99.90;;;;;;6281104;22;20007;-87
2022/07/26 12:50:20;;;;;;;8.25;1.40;;;20.20;99.90;;;;;;6280764;22;20061;-86
2022/07/26 12:52:47;;;;;;;8.73;1.55;;;20.40;99.90;;;;;;6308851;22;20011;-86
2022/07/26 12:55:16;;;;;;;6.30;1.30;;;20.40;99.90;;;;;;6281347;22;20015;-87
2022/07/26 12:57:44;;;;;;;8.05;1.10;;;20.60;99.90;;;;;;6309838;22;20015;-85
2022/07/26 13:00:11;;;;;;;9.38;1.60;;;20.80;99.90;;;;;;6281587;22;20086;-84
2022/07/26 13:02:38;;;;;;;7.80;1.42;;;20.80;99.90;;;;;;6255375;22;20447;-86
2022/07/26 13:05:04;;;;;;;8.15;1.10;;;20.80;99.90;;;;;;6281666;22;20015;-86
2022/07/26 13:07:30;;;;;;;4.80;1.13;;;20.70;99.90;;;;;;6281534;22;20524;-85
2022/07/26 13:09:56;;;;;;;6.32;1.08;;;20.70;99.90;;;;;;6255522;22;20025;-84
2022/07/26 13:12:22;;;;;;;4.75;0.93;;;20.60;99.90;;;;;;6282261;22;20067;-85
2022/07/26 13:14:48;;;;;;;4.70;1.10;;;20.60;99.90;;;;;;6255584;22;20047;-83
2022/07/26 13:17:14;;;;;;;5.70;1.00;;;20.50;99.90;;;;;;6280536;22;20023;-85
2022/07/26 13:19:40;;;;;;;7.15;1.08;;;20.50;99.90;;;;;;6255847;22;20448;-83
2022/07/26 13:22:07;;;;;;;22.25;1.80;;;20.50;99.90;;;;;;6281243;22;20015;-85
2022/07/26 13:24:34;;;;;;;6.80;1.70;;;20.40;99.90;;;;;;6281054;22;20097;-86
2022/07/26 13:27:00;;;;;;;9.57;1.25;;;20.70;99.90;;;;;;6282502;22;20049;-85
2022/07/26 13:29:26;;;;;;;5.60;1.25;;;20.80;99.90;;;;;;6281488;22;20008;-86
2022/07/26 13:31:55;;;;;;;7.65;1.20;;;20.90;99.90;;;;;;6255156;22;20007;-86
2022/07/26 13:34:22;;;;;;;7.18;1.10;;;21.00;99.90;;;;;;6282056;22;20019;-85
2022/07/26 13:36:49;;;;;;;7.05;1.23;;;21.10;99.90;;;;;;6280828;22;20144;-85
2022/07/26 13:39:15;;;;;;;5.80;1.38;;;21.20;99.90;;;;;;6255091;22;20011;-87
2022/07/26 13:41:44;;;;;;;5.15;1.30;;;21.30;99.90;;;;;;6281557;22;20401;-86
2022/07/26 13:44:10;;;;;;;6.55;1.17;;;21.60;99.90;;;;;;6281437;22;20053;-84
2022/07/26 13:46:35;;;;;;;5.85;1.30;;;21.60;99.90;;;;;;6255142;22;20008;-86
2022/07/26 13:49:03;;;;;;;4.72;1.20;;;21.50;99.90;;;;;;6309096;22;20007;-86
2022/07/26 13:54:17;;;;;;;5.68;1.25;;;21.80;99.90;;;;;;6281904;22;20019;-85
2022/07/26 13:56:43;;;;;;;5.50;1.00;;;21.70;99.90;;;;;;6281548;22;20011;-86
2022/07/26 13:59:10;;;;;;;9.85;1.60;;;21.60;99.40;;;;;;6255512;22;20470;-87
2022/07/26 14:01:36;;;;;;;7.95;1.48;;;21.20;99.50;;;;;;6281159;22;20061;-88
2022/07/26 14:04:04;;;;;;;6.93;1.33;;;21.10;99.90;;;;;;6256061;22;20467;-85
2022/07/26 14:06:30;;;;;;;5.80;1.50;;;20.90;99.90;;;;;;6281488;22;20445;-86
2022/07/26 14:08:55;;;;;;;5.45;1.23;;;21.00;99.90;;;;;;6281035;22;20011;-85
2022/07/26 14:11:21;;;;;;;5.47;1.10;;;21.30;99.90;;;;;;6281951;22;20003;-86
2022/07/26 14:13:47;;;;;;;7.25;1.10;;;21.40;97.80;;;;;;6283256;22;20015;-87
2022/07/26 14:16:13;;;;;;;5.00;1.23;;;21.60;99.50;;;;;;6311130;22;20022;-86
2022/07/26 14:18:38;;;;;;;6.28;1.42;;;21.20;95.90;;;;;;6283172;22;20064;-86
2022/07/26 14:21:04;;;;;;;6.53;1.35;;;21.40;98.40;;;;;;6259107;22;20015;-86
2022/07/26 14:23:30;;;;;;;3.95;1.00;;;21.50;96.10;;;;;;6258022;22;20024;-89
2022/07/26 14:25:55;;;;;;;6.82;1.33;;;21.50;95.20;;;;;;6283325;22;20025;-86
2022/07/26 14:28:21;;;;;;;4.75;1.02;;;21.60;94.40;;;;;;6284635;22;20305;-86
2022/07/26 14:30:47;;;;;;;6.72;0.95;;;21.60;92.70;;;;;;6282366;22;20014;-85
2022/07/26 14:33:13;;;;;;;5.72;1.55;;;21.80;92.90;;;;;;6282504;22;20018;-89
2022/07/26 14:35:40;;;;;;;6.57;1.65;;;22.00;92.80;;;;;;6259677;22;20015;-87
2022/07/26 14:38:07;;;;;;;5.68;0.90;;;22.10;91.70;;;;;;6283061;22;20015;-89
2022/07/26 14:40:33;;;;;;;6.38;0.90;;;22.10;88.20;;;;;;6256807;22;20016;-86
2022/07/26 14:42:58;;;;;;;4.47;1.10;;;22.10;85.70;;;;;;6311970;22;20007;-87
2022/07/26 14:45:24;;;;;;;5.32;1.00;;;22.20;87.30;;;;;;6283691;22;20456;-87
2022/07/26 14:47:50;;;;;;;4.63;1.00;;;22.10;85.40;;;;;;6258476;22;20036;-86
2022/07/26 14:50:16;;;;;;;3.15;0.80;;;22.10;88.80;;;;;;6283728;22;20322;-88
2022/07/26 14:52:45;;;;;;;4.43;0.93;;;21.80;86.30;;;;;;6257980;22;20011;-87
2022/07/26 14:55:10;;;;;;;4.72;0.88;;;21.50;87.40;;;;;;6283168;22;20015;-85
2022/07/26 14:57:37;;;;;;;5.20;1.08;;;21.30;89.00;;;;;;6283656;22;20375;-86
2022/07/26 15:00:08;;;;;;;3.85;0.82;;;20.90;90.30;;;;;;6257486;22;20064;-86
2022/07/26 15:02:34;;;;;;;5.15;0.90;;;20.70;91.60;;;;;;6258085;22;20015;-85
2022/07/26 15:04:59;;;;;;;6.82;1.20;;;20.60;93.20;;;;;;6311260;22;20050;-89
2022/07/26 15:07:25;;;;;;;4.68;0.77;;;20.80;93.50;;;;;;6259660;22;20011;-85
2022/07/26 15:09:51;;;;;;;3.75;0.75;;;20.80;92.70;;;;;;6292470;22;20011;-86
2022/07/26 15:12:17;;;;;;;5.85;0.80;;;20.70;93.10;;;;;;6293909;22;20022;-86
2022/07/26 15:14:44;;;;;;;2.88;0.80;;;20.60;94.40;;;;;;6293845;22;20016;-86
2022/07/26 15:17:12;;;;;;;4.90;1.00;;;20.60;94.20;;;;;;6294457;22;20011;-85
2022/07/26 15:19:38;;;;;;;7.47;0.90;;;20.70;94.80;;;;;;6299121;22;20015;-86
2022/07/26 15:22:04;;;;;;;9.10;1.25;;;20.90;96.00;;;;;;6306135;22;19995;-87
2022/07/26 15:24:30;;;;;;;8.75;0.90;;;20.90;94.90;;;;;;6334263;22;20014;-88
2022/07/26 15:26:56;;;;;;;2.72;0.90;;;20.90;94.30;;;;;;6334961;22;20017;-81
2022/07/26 15:29:21;;;;;;;5.97;0.77;;;20.70;94.40;;;;;;6296435;22;20026;-87
2022/07/26 15:31:48;;;;;;;6.22;0.98;;;20.60;95.40;;;;;;6316565;22;20003;-89
2022/07/26 15:34:13;;;;;;;4.00;1.02;;;20.50;96.50;;;;;;6284138;22;20091;-87
2022/07/26 15:36:39;;;;;;;4.72;0.82;;;20.40;95.10;;;;;;6310811;22;20425;-90
2022/07/26 15:39:05;;;;;;;4.93;0.80;;;20.30;95.90;;;;;;6259365;22;20019;-87
2022/07/26 15:41:32;;;;;;;4.38;0.93;;;20.10;95.80;;;;;;6282937;22;20011;-88
2022/07/26 15:43:58;;;;;;;3.38;0.80;;;20.00;95.50;;;;;;6282250;22;20011;-86
2022/07/26 15:46:24;;;;;;;6.38;1.02;;;20.00;96.40;;;;;;6285027;22;20440;-87
2022/07/26 15:48:49;;;;;;;4.45;0.88;;;20.10;96.90;;;;;;6257867;22;20046;-86
2022/07/26 15:51:15;;;;;;;4.07;0.85;;;20.10;97.00;;;;;;6259594;22;20086;-86
2022/07/26 15:53:43;;;;;;;4.60;0.80;;;20.10;96.90;;;;;;6259321;22;20012;-86
2022/07/26 15:56:09;;;;;;;3.58;0.63;;;20.00;97.10;;;;;;6283345;22;20018;-85
2022/07/26 15:58:35;;;;;;;5.45;0.90;;;19.90;97.80;;;;;;6283556;22;20037;-84
2022/07/26 16:01:05;;;;;;;1.80;0.65;;;19.70;99.30;;;;;;6311141;22;20062;-84
2022/07/26 16:03:30;;;;;;;5.75;1.00;;;19.70;99.90;;;;;;6281512;22;20015;-85
2022/07/26 16:05:56;;;;;;;4.50;1.05;;;19.60;99.90;;;;;;6283036;22;20046;-85
2022/07/26 16:08:22;;;;;;;5.55;1.20;;;19.50;99.90;;;;;;6309979;22;20037;-85
2022/07/26 16:10:48;;;;;;;13.85;5.88;;;19.50;99.90;;;;;;6281809;22;20012;-85
2022/07/26 16:13:14;;;;;;;1.83;0.70;;;19.40;99.90;;;;;;6284148;22;20010;-86
2022/07/26 16:15:39;;;;;;;12.68;6.15;;;19.40;99.90;;;;;;6309979;22;20448;-85
2022/07/26 16:18:06;;;;;;;12.82;7.00;;;19.40;99.90;;;;;;6283623;22;20336;-85
2022/07/26 16:20:43;;;;;;;11.73;5.53;;;19.30;99.90;;;;;;6310383;22;20093;-85
2022/07/26 16:23:12;;;;;;;8.90;1.95;;;19.20;99.90;;;;;;6281424;22;20007;-86
2022/07/26 16:25:37;;;;;;;2.67;0.82;;;19.30;99.90;;;;;;6257437;22;20034;-86
2022/07/26 16:28:03;;;;;;;5.30;0.90;;;19.40;99.90;;;;;;6310368;22;20046;-86
2022/07/26 16:30:35;;;;;;;4.78;1.00;;;19.30;99.90;;;;;;6281410;22;20098;-85
2022/07/26 16:33:02;;;;;;;5.32;0.90;;;19.20;99.90;;;;;;6282849;22;20362;-84
2022/07/26 16:35:28;;;;;;;6.13;0.93;;;19.20;99.90;;;;;;6308584;22;20018;-87
2022/07/26 16:37:53;;;;;;;5.57;1.00;;;19.10;99.90;;;;;;6308760;22;20039;-86
2022/07/26 16:40:19;;;;;;;4.70;1.25;;;19.00;99.90;;;;;;6282134;22;20333;-86